createdAt,value
2019-03-12T00:01:49.974Z,75.70
2019-03-12T00:04:24.652Z,75.55
2019-03-12T00:06:58.945Z,75.55
2019-03-12T00:09:31.857Z,75.80
2019-03-12T00:12:06.124Z,75.74
2019-03-12T00:14:40.703Z,75.67
2019-03-12T00:17:15.092Z,75.67
2019-03-12T00:19:49.399Z,75.41
2019-03-12T00:22:23.739Z,75.41
2019-03-12T00:24:57.962Z,75.29
2019-03-12T00:27:30.762Z,75.27
2019-03-12T00:30:04.965Z,75.30
2019-03-12T00:32:38.055Z,75.23
2019-03-12T00:35:12.282Z,75.16
2019-03-12T00:37:46.781Z,74.98
2019-03-12T00:40:19.697Z,74.91
2019-03-12T00:42:53.992Z,74.87
2019-03-12T00:45:28.399Z,74.79
2019-03-12T00:48:03.057Z,74.64
2019-03-12T00:50:37.625Z,74.82
2019-03-12T00:53:11.960Z,74.82
2019-03-12T00:55:44.881Z,74.73
2019-03-12T00:58:19.097Z,74.75
2019-03-12T01:00:53.534Z,75.04
2019-03-12T01:03:27.972Z,75.17
2019-03-12T01:06:02.696Z,75.29
2019-03-12T01:08:37.086Z,75.29
2019-03-12T01:11:11.659Z,75.29
2019-03-12T01:13:46.084Z,75.29
2019-03-12T01:16:20.327Z,75.44
2019-03-12T01:18:54.897Z,75.44
2019-03-12T01:21:27.855Z,75.78
2019-03-12T01:24:02.013Z,75.71
2019-03-12T01:26:36.647Z,75.37
2019-03-12T01:29:11.117Z,75.37
2019-03-12T01:31:45.706Z,75.23
2019-03-12T01:34:20.086Z,75.23
2019-03-12T01:36:54.351Z,75.42
2019-03-12T01:39:29.790Z,75.42
2019-03-12T01:42:02.716Z,75.31
2019-03-12T01:44:36.993Z,75.30
2019-03-12T01:47:11.268Z,75.40
2019-03-12T01:49:45.680Z,75.51
2019-03-12T01:52:19.951Z,75.64
2019-03-12T01:54:52.677Z,75.60
2019-03-12T01:57:26.931Z,75.73
2019-03-12T02:00:01.309Z,75.85
2019-03-12T02:04:26.675Z,76.28
2019-03-12T02:07:01.391Z,76.13
2019-03-12T02:09:35.903Z,76.16
2019-03-12T02:12:08.858Z,75.96
2019-03-12T02:14:43.303Z,75.70
2019-03-12T02:17:17.753Z,75.51
2019-03-12T02:19:52.135Z,75.52
2019-03-12T02:22:26.701Z,75.36
2019-03-12T02:25:00.975Z,75.23
2019-03-12T02:27:33.866Z,75.21
2019-03-12T02:30:10.689Z,75.21
2019-03-12T02:32:46.146Z,75.19
2019-03-12T02:35:20.708Z,75.14
2019-03-12T02:37:55.296Z,74.98
2019-03-12T02:40:29.703Z,75.10
2019-03-12T02:43:04.287Z,75.03
2019-03-12T02:45:38.712Z,75.03
2019-03-12T02:48:13.146Z,75.03
2019-03-12T02:50:47.650Z,75.32
2019-03-12T02:53:22.128Z,75.07
2019-03-12T02:55:56.308Z,74.95
2019-03-12T02:58:30.785Z,74.95
2019-03-12T03:01:05.171Z,74.77
2019-03-12T03:03:39.758Z,74.71
2019-03-12T03:06:20.884Z,74.64
2019-03-12T03:08:55.279Z,74.72
2019-03-12T03:11:29.876Z,74.65
2019-03-12T03:14:02.904Z,74.87
2019-03-12T03:16:37.081Z,74.92
2019-03-12T03:19:11.360Z,74.77
2019-03-12T03:21:48.955Z,74.77
2019-03-12T03:24:21.871Z,74.76
2019-03-12T03:26:56.291Z,74.76
2019-03-12T03:29:30.717Z,74.71
2019-03-12T03:32:05.123Z,74.57
2019-03-12T03:34:39.738Z,74.49
2019-03-12T03:37:14.097Z,74.53
2019-03-12T03:39:49.648Z,74.58
2019-03-12T03:42:24.327Z,74.36
2019-03-12T03:44:58.894Z,74.46
2019-03-12T03:47:31.877Z,74.29
2019-03-12T03:50:06.389Z,74.31
2019-03-12T03:52:41.137Z,73.94
2019-03-12T03:55:18.299Z,73.30
2019-03-12T03:57:52.711Z,73.30
2019-03-12T04:00:27.287Z,73.48
2019-03-12T04:03:01.733Z,73.59
2019-03-12T04:05:36.160Z,73.55
2019-03-12T04:08:10.676Z,73.67
2019-03-12T04:10:45.079Z,74.08
2019-03-12T04:13:19.657Z,74.21
2019-03-12T04:15:54.100Z,74.21
2019-03-12T04:18:28.711Z,74.10
2019-03-12T04:21:03.116Z,74.35
2019-03-12T04:23:37.709Z,74.57
2019-03-12T04:26:12.950Z,74.29
2019-03-12T04:28:45.870Z,73.85
2019-03-12T04:31:19.928Z,73.94
2019-03-12T04:34:31.279Z,73.79
2019-03-12T04:37:06.737Z,73.46
2019-03-12T04:39:41.107Z,73.27
2019-03-12T04:42:15.609Z,73.70
2019-03-12T04:44:49.943Z,73.70
2019-03-12T04:47:22.853Z,74.03
2019-03-12T04:49:57.109Z,74.38
2019-03-12T04:52:31.619Z,75.33
2019-03-12T04:55:06.344Z,75.33
2019-03-12T04:57:41.022Z,75.32
2019-03-12T05:00:17.699Z,75.80
2019-03-12T05:02:52.289Z,75.80
2019-03-12T05:05:26.714Z,76.15
2019-03-12T05:08:01.129Z,76.08
2019-03-12T05:10:35.653Z,76.12
2019-03-12T05:13:10.079Z,76.12
2019-03-12T05:15:44.717Z,76.03
2019-03-12T05:18:19.115Z,75.99
2019-03-12T05:20:54.065Z,76.03
2019-03-12T05:23:28.934Z,76.70
2019-03-12T05:26:03.480Z,76.70
2019-03-12T05:28:37.762Z,76.55
2019-03-12T05:31:10.996Z,76.55
2019-03-12T05:33:43.869Z,76.35
2019-03-12T05:36:18.084Z,76.12
2019-03-12T05:38:53.658Z,75.94
2019-03-12T05:41:27.947Z,75.97
2019-03-12T05:44:00.864Z,75.82
2019-03-12T05:46:35.741Z,75.57
2019-03-12T05:49:10.288Z,75.71
2019-03-12T05:51:44.722Z,76.18
2019-03-12T05:54:18.986Z,76.19
2019-03-12T05:56:53.347Z,76.15
2019-03-12T05:59:28.298Z,76.15
2019-03-12T06:02:02.925Z,76.01
2019-03-12T06:04:37.607Z,75.82
2019-03-12T06:07:12.116Z,75.69
2019-03-12T06:09:46.741Z,75.97
2019-03-12T06:12:21.280Z,75.97
2019-03-12T06:14:55.785Z,75.68
2019-03-12T06:17:30.273Z,75.53
2019-03-12T06:20:06.284Z,75.66
2019-03-12T06:22:40.949Z,75.91
2019-03-12T06:25:18.613Z,75.60
2019-03-12T06:27:53.279Z,75.61
2019-03-12T06:30:29.365Z,75.48
2019-03-12T06:33:11.701Z,75.16
2019-03-12T06:36:04.728Z,74.83
2019-03-12T06:38:50.933Z,74.83
2019-03-12T06:41:36.421Z,74.45
2019-03-12T06:44:32.281Z,73.79
2019-03-12T06:47:18.275Z,73.79
2019-03-12T06:50:17.352Z,73.40
2019-03-12T06:53:10.955Z,73.33
2019-03-12T06:56:02.265Z,72.85
2019-03-12T06:59:03.967Z,72.28
2019-03-12T07:01:52.862Z,71.39
2019-03-12T07:04:33.776Z,71.39
2019-03-12T07:07:41.615Z,71.33
2019-03-12T07:10:33.427Z,71.79
2019-03-12T07:13:31.366Z,71.06
2019-03-12T07:16:21.282Z,70.92
2019-03-12T07:19:26.297Z,70.75
2019-03-12T07:22:13.742Z,70.00
2019-03-12T07:25:05.569Z,69.71
2019-03-12T07:27:55.746Z,68.94
2019-03-12T07:30:44.289Z,68.94
2019-03-12T07:33:36.393Z,68.18
2019-03-12T07:36:32.664Z,68.18
2019-03-12T07:39:26.780Z,67.82
2019-03-12T07:42:14.614Z,67.52
2019-03-12T07:45:20.212Z,67.11
2019-03-12T07:48:16.571Z,66.80
2019-03-12T07:51:08.892Z,67.16
2019-03-12T07:53:59.527Z,66.81
2019-03-12T07:56:40.499Z,66.49
2019-03-12T07:59:38.664Z,66.43
2019-03-12T08:02:31.682Z,66.56
2019-03-12T08:05:43.602Z,66.75
2019-03-12T08:08:46.129Z,66.56
2019-03-12T08:11:43.708Z,66.23
2019-03-12T08:14:49.275Z,66.23
2019-03-12T08:17:57.944Z,66.22
2019-03-12T08:20:43.757Z,66.24
2019-03-12T08:23:36.417Z,66.56
2019-03-12T08:26:20.457Z,66.70
2019-03-12T08:29:03.713Z,66.68
2019-03-12T08:31:52.863Z,66.44
2019-03-12T08:34:48.530Z,66.51
2019-03-12T08:37:40.608Z,66.23
2019-03-12T08:40:31.670Z,66.88
2019-03-12T08:43:24.944Z,66.33
2019-03-12T08:46:18.272Z,65.82
2019-03-12T08:49:17.640Z,65.49
2019-03-12T08:52:09.668Z,64.38
2019-03-12T08:55:09.260Z,64.57
2019-03-12T08:58:15.511Z,63.84
2019-03-12T09:01:08.280Z,63.26
2019-03-12T09:04:17.094Z,61.30
2019-03-12T09:07:07.940Z,60.83
2019-03-12T09:09:57.489Z,60.83
2019-03-12T09:12:53.745Z,60.04
2019-03-12T09:15:34.653Z,60.04
2019-03-12T09:18:34.263Z,60.16
2019-03-12T09:21:26.759Z,59.99
2019-03-12T09:24:30.401Z,59.77
2019-03-12T09:27:29.937Z,58.94
2019-03-12T09:30:24.266Z,59.30
2019-03-12T09:33:14.316Z,58.21
2019-03-12T09:36:13.624Z,58.62
2019-03-12T09:39:09.549Z,58.16
2019-03-12T09:42:11.951Z,57.60
2019-03-12T09:44:53.446Z,51.05
2019-03-12T09:47:35.275Z,51.05
2019-03-12T09:50:17.939Z,48.66
2019-03-12T09:52:59.402Z,50.18
2019-03-12T09:55:55.946Z,51.90
2019-03-12T09:58:36.739Z,51.50
2019-03-12T10:01:30.943Z,50.07
2019-03-12T10:04:20.200Z,45.65
2019-03-12T10:07:23.072Z,45.35
2019-03-12T10:10:19.283Z,43.35
2019-03-12T10:13:19.272Z,43.35
2019-03-12T10:16:12.471Z,41.95
2019-03-12T10:19:04.863Z,40.78
2019-03-12T10:21:45.283Z,40.38
2019-03-12T10:24:44.333Z,39.96
2019-03-12T10:27:30.678Z,40.12
2019-03-12T10:30:37.696Z,40.32
2019-03-12T10:33:48.275Z,40.32
2019-03-12T10:36:35.751Z,39.83
2019-03-12T10:40:30.107Z,39.83
2019-03-12T10:43:34.264Z,37.68
2019-03-12T10:46:22.764Z,37.92
2019-03-12T10:48:56.118Z,36.15
2019-03-12T10:51:30.654Z,34.04
2019-03-12T10:54:05.131Z,33.50
2019-03-12T10:56:39.954Z,34.05
2019-03-12T10:59:13.283Z,34.05
2019-03-12T11:01:48.872Z,33.35
2019-03-12T11:04:22.110Z,35.64
2019-03-12T11:06:56.657Z,35.64
2019-03-12T11:09:31.281Z,36.38
2019-03-12T11:12:05.866Z,33.13
2019-03-12T11:14:39.107Z,30.62
2019-03-12T11:17:13.278Z,30.62
2019-03-12T11:19:48.070Z,31.55
2019-03-12T11:22:22.929Z,32.78
2019-03-12T11:24:57.315Z,32.57
2019-03-12T11:27:31.874Z,31.40
2019-03-12T11:30:06.720Z,32.06
2019-03-12T11:32:40.262Z,31.06
2019-03-12T11:35:14.786Z,26.45
2019-03-12T11:37:48.305Z,26.45
2019-03-12T11:40:24.302Z,26.95
2019-03-12T11:42:59.320Z,29.29
2019-03-12T11:45:36.607Z,29.71
2019-03-12T11:48:10.699Z,28.31
2019-03-12T11:50:45.257Z,27.02
2019-03-12T11:53:19.904Z,27.71
2019-03-12T11:55:54.271Z,30.39
2019-03-12T11:58:29.271Z,32.20
2019-03-12T12:01:05.826Z,27.86
2019-03-12T12:03:40.564Z,28.29
2019-03-12T12:06:15.309Z,26.18
2019-03-12T12:08:50.271Z,26.18
2019-03-12T12:11:25.765Z,24.63
2019-03-12T12:14:02.272Z,23.75
2019-03-12T12:16:36.791Z,22.61
2019-03-12T12:19:10.268Z,22.75
2019-03-12T12:21:45.679Z,24.75
2019-03-12T12:24:20.280Z,24.15
2019-03-12T12:26:55.142Z,22.89
2019-03-12T12:29:29.798Z,22.92
2019-03-12T12:32:03.288Z,22.92
2019-03-12T12:34:37.653Z,22.90
2019-03-12T12:37:13.840Z,22.90
2019-03-12T12:39:48.712Z,22.47
2019-03-12T12:42:22.278Z,23.75
2019-03-12T12:44:56.999Z,22.82
2019-03-12T12:47:31.280Z,22.82
2019-03-12T12:50:06.561Z,22.14
2019-03-12T12:52:41.294Z,22.58
2019-03-12T12:55:16.945Z,22.09
2019-03-12T12:57:52.294Z,22.09
2019-03-12T13:00:27.288Z,21.62
2019-03-12T13:03:02.159Z,21.50
2019-03-12T13:05:36.728Z,20.61
2019-03-12T13:08:11.284Z,22.22
2019-03-12T13:10:46.951Z,21.92
2019-03-12T13:13:21.655Z,21.69
2019-03-12T13:15:56.283Z,21.70
2019-03-12T13:18:31.942Z,25.94
2019-03-12T13:21:06.319Z,25.94
2019-03-12T13:23:41.290Z,25.03
2019-03-12T13:26:16.256Z,24.75
2019-03-12T13:28:50.934Z,23.90
2019-03-12T13:31:25.472Z,23.90
2019-03-12T13:34:00.284Z,24.36
2019-03-12T13:36:34.887Z,23.91
2019-03-12T13:39:11.024Z,24.12
2019-03-12T13:41:46.887Z,27.26
2019-03-12T13:44:21.718Z,26.80
2019-03-12T13:46:55.301Z,25.10
2019-03-12T13:49:29.927Z,25.48
2019-03-12T13:52:05.655Z,22.57
2019-03-12T13:54:40.504Z,23.62
2019-03-12T13:57:15.273Z,23.62
2019-03-12T13:59:49.942Z,24.33
2019-03-12T14:02:24.674Z,23.91
2019-03-12T14:04:59.277Z,23.45
2019-03-12T14:07:33.735Z,23.40
2019-03-12T14:10:08.051Z,23.21
2019-03-12T14:12:42.425Z,24.84
2019-03-12T14:15:21.792Z,24.49
2019-03-12T14:17:56.320Z,24.49
2019-03-12T14:20:52.760Z,25.09
2019-03-12T14:23:51.941Z,23.11
2019-03-12T14:26:28.085Z,23.11
2019-03-12T14:29:02.710Z,24.81
2019-03-12T14:31:37.288Z,24.81
2019-03-12T14:34:11.854Z,26.93
2019-03-12T14:36:46.307Z,25.48
2019-03-12T14:39:21.732Z,25.57
2019-03-12T14:41:55.252Z,26.27
2019-03-12T14:44:29.690Z,27.41
2019-03-12T14:47:05.951Z,26.72
2019-03-12T14:49:39.285Z,26.90
2019-03-12T14:52:36.276Z,29.63
2019-03-12T14:55:11.267Z,30.17
2019-03-12T14:57:46.296Z,30.68
2019-03-12T15:00:24.893Z,31.26
2019-03-12T15:02:59.936Z,32.81
2019-03-12T15:05:34.663Z,33.64
2019-03-12T15:08:13.668Z,34.10
2019-03-12T15:10:48.281Z,35.09
2019-03-12T15:13:22.899Z,35.17
2019-03-12T15:15:57.333Z,35.78
2019-03-12T15:18:31.881Z,36.30
2019-03-12T15:21:05.441Z,36.25
2019-03-12T15:23:40.248Z,36.59
2019-03-12T15:26:14.796Z,36.63
2019-03-12T15:28:48.003Z,33.08
2019-03-12T15:31:21.296Z,33.08
2019-03-12T15:35:56.681Z,34.82
2019-03-12T15:38:35.251Z,35.45
2019-03-12T15:41:09.902Z,36.15
2019-03-12T15:43:44.296Z,37.46
2019-03-12T15:46:20.266Z,37.46
2019-03-12T15:48:54.939Z,37.58
2019-03-12T15:51:29.517Z,38.24
2019-03-12T15:54:04.274Z,38.51
2019-03-12T15:56:38.945Z,38.26
2019-03-12T15:59:13.613Z,38.59
2019-03-12T16:01:48.273Z,38.98
2019-03-12T16:04:22.893Z,39.28
2019-03-12T16:07:01.511Z,39.34
2019-03-12T16:09:35.587Z,39.59
2019-03-12T16:12:10.283Z,39.94
2019-03-12T16:14:45.284Z,39.92
2019-03-12T16:17:20.116Z,40.14
2019-03-12T16:19:55.270Z,40.34
2019-03-12T16:22:30.286Z,40.61
2019-03-12T16:25:04.725Z,40.97
2019-03-12T16:27:39.284Z,41.20
2019-03-12T16:30:14.041Z,41.33
2019-03-12T16:32:48.665Z,42.17
2019-03-12T16:35:23.244Z,42.17
2019-03-12T16:37:58.081Z,42.37
2019-03-12T16:40:32.694Z,43.21
2019-03-12T16:43:07.273Z,43.21
2019-03-12T16:45:41.686Z,43.36
2019-03-12T16:48:17.272Z,43.63
2019-03-12T16:50:52.280Z,43.63
2019-03-12T16:53:26.877Z,43.73
2019-03-12T16:56:00.337Z,44.13
2019-03-12T16:58:35.269Z,44.09
2019-03-12T17:01:10.096Z,44.09
2019-03-12T17:03:44.755Z,44.25
2019-03-12T17:06:20.913Z,44.18
2019-03-12T17:08:56.280Z,44.48
2019-03-12T17:11:31.330Z,44.42
2019-03-12T17:14:06.117Z,44.54
2019-03-12T17:16:40.905Z,44.53
2019-03-12T17:19:15.746Z,44.39
2019-03-12T17:21:52.343Z,44.34
2019-03-12T17:24:27.273Z,44.32
2019-03-12T17:27:01.871Z,44.18
2019-03-12T17:29:37.263Z,44.22
2019-03-12T17:32:12.274Z,44.46
2019-03-12T17:34:48.661Z,44.32
2019-03-12T17:37:28.415Z,44.39
2019-03-12T17:40:08.971Z,44.17
2019-03-12T17:42:44.100Z,44.34
2019-03-12T17:45:19.255Z,43.74
2019-03-12T17:47:55.122Z,43.80
2019-03-12T17:50:30.262Z,43.66
2019-03-12T17:53:04.882Z,43.55
2019-03-12T17:55:39.752Z,43.28
2019-03-12T17:58:12.862Z,43.28
2019-03-12T18:00:50.272Z,43.25
2019-03-12T18:03:25.611Z,42.73
2019-03-12T18:06:00.272Z,42.73
2019-03-12T18:08:35.087Z,42.84
2019-03-12T18:11:17.550Z,42.69
2019-03-12T18:13:53.523Z,42.49
2019-03-12T18:16:40.588Z,42.54
2019-03-12T18:19:06.943Z,42.33
2019-03-12T18:21:41.647Z,42.50
2019-03-12T18:24:16.364Z,42.50
2019-03-12T18:26:52.287Z,42.21
2019-03-12T18:29:28.758Z,42.20
2019-03-12T18:32:03.574Z,41.86
2019-03-12T18:34:39.271Z,42.01
2019-03-12T18:37:13.942Z,41.69
2019-03-12T18:39:47.696Z,41.28
2019-03-12T18:42:21.940Z,41.29
2019-03-12T18:44:56.107Z,41.05
2019-03-12T18:47:30.681Z,41.08
2019-03-12T18:50:06.992Z,41.08
2019-03-12T18:52:41.395Z,40.32
2019-03-12T18:55:49.708Z,40.32
2019-03-12T18:58:24.278Z,40.60
2019-03-12T19:01:01.715Z,39.97
2019-03-12T19:03:35.098Z,39.81
2019-03-12T19:06:10.233Z,39.79
2019-03-12T19:08:48.010Z,39.79
2019-03-12T19:11:21.682Z,39.63
2019-03-12T19:13:56.104Z,39.67
2019-03-12T19:16:30.941Z,39.62
2019-03-12T19:19:05.945Z,39.27
2019-03-12T19:21:38.859Z,39.04
2019-03-12T19:24:14.273Z,39.04
2019-03-12T19:26:48.943Z,38.95
2019-03-12T19:29:23.274Z,38.48
2019-03-12T19:32:22.281Z,38.81
2019-03-12T19:34:57.262Z,38.81
2019-03-12T19:37:32.278Z,38.12
2019-03-12T19:40:08.289Z,38.57
2019-03-12T19:42:43.131Z,38.17
2019-03-12T19:45:18.168Z,38.20
2019-03-12T19:47:53.051Z,37.71
2019-03-12T19:50:28.587Z,37.55
2019-03-12T19:53:03.314Z,37.65
2019-03-12T19:57:09.277Z,38.04
2019-03-12T19:59:49.416Z,38.42
2019-03-12T20:02:24.624Z,38.42
2019-03-12T20:06:17.283Z,37.96
2019-03-12T20:08:52.690Z,37.96
2019-03-12T20:12:14.257Z,38.20
2019-03-12T20:16:02.293Z,38.42
2019-03-12T20:19:40.973Z,38.42
2019-03-12T20:23:19.672Z,38.30
2019-03-12T20:26:57.754Z,38.30
2019-03-12T20:30:20.786Z,38.20
2019-03-12T20:33:58.902Z,38.32
2019-03-12T20:37:07.543Z,38.14
2019-03-12T20:40:59.942Z,38.14
2019-03-12T20:44:22.317Z,37.87
2019-03-12T20:48:00.621Z,37.97
2019-03-12T20:51:31.294Z,37.92
2019-03-12T20:55:02.647Z,37.71
2019-03-12T20:58:15.628Z,37.00
2019-03-12T21:02:11.350Z,37.00
2019-03-12T21:05:47.547Z,36.66
2019-03-12T21:09:47.678Z,36.39
2019-03-12T21:13:07.785Z,35.78
2019-03-12T21:16:41.942Z,35.22
2019-03-12T21:20:41.698Z,34.80
2019-03-12T21:23:41.941Z,34.71
2019-03-12T21:27:31.308Z,34.17
2019-03-12T21:30:02.717Z,34.24
2019-03-12T21:32:38.761Z,33.40
2019-03-12T21:35:13.289Z,33.32
2019-03-12T21:37:48.110Z,33.32
2019-03-12T21:40:22.786Z,33.38
2019-03-12T21:42:57.214Z,33.02
2019-03-12T21:45:31.707Z,33.00
2019-03-12T21:48:06.274Z,33.00
2019-03-12T21:50:41.283Z,32.65
2019-03-12T21:53:15.767Z,32.93
2019-03-12T21:55:48.850Z,32.84
2019-03-12T21:58:23.119Z,32.50
2019-03-12T22:00:57.627Z,32.39
2019-03-12T22:03:32.284Z,32.39
2019-03-12T22:06:06.837Z,32.14
2019-03-12T22:08:41.259Z,32.11
2019-03-12T22:11:15.757Z,32.21
2019-03-12T22:13:50.125Z,32.18
2019-03-12T22:16:24.583Z,32.00
2019-03-12T22:18:58.940Z,32.00
2019-03-12T22:21:51.287Z,32.05
2019-03-12T22:24:25.312Z,32.12
2019-03-12T22:26:59.927Z,32.12
2019-03-12T22:29:34.288Z,32.17
2019-03-12T22:32:08.751Z,32.02
2019-03-12T22:34:42.042Z,32.02
2019-03-12T22:37:15.064Z,32.53
2019-03-12T22:39:49.279Z,32.53
2019-03-12T22:42:23.704Z,33.04
2019-03-12T22:44:58.118Z,33.04
2019-03-12T22:47:32.649Z,31.61
2019-03-12T22:50:07.949Z,31.61
2019-03-12T22:52:41.281Z,31.28
2019-03-12T22:55:16.286Z,30.83
2019-03-12T22:57:50.870Z,30.98
2019-03-12T23:00:42.947Z,30.79
2019-03-12T23:03:34.956Z,30.76
2019-03-12T23:06:28.778Z,30.68
2019-03-12T23:09:21.285Z,30.84
2019-03-12T23:11:56.954Z,30.88
2019-03-12T23:14:29.877Z,30.84
2019-03-12T23:17:04.403Z,30.84
2019-03-12T23:19:37.797Z,30.92
2019-03-12T23:22:12.282Z,31.27
2019-03-12T23:26:06.686Z,31.06
2019-03-12T23:28:42.287Z,31.03
2019-03-12T23:31:17.140Z,31.05
2019-03-12T23:33:52.777Z,30.98
2019-03-12T23:36:27.281Z,30.82
2019-03-12T23:39:01.954Z,30.41
2019-03-12T23:41:39.295Z,30.46
2019-03-12T23:44:14.294Z,30.43
2019-03-12T23:46:48.940Z,30.34
2019-03-12T23:49:23.086Z,30.60
2019-03-12T23:51:56.292Z,30.68
2019-03-12T23:54:31.089Z,30.87
2019-03-12T23:57:05.709Z,30.67
2019-03-12T23:59:41.881Z,30.67
